KBRG/BRG METAR and TAF weather

Enter ICAO airport designator
Station Type Date Time Source
KBRG METAR 2022/06/30 01:15 UTC NOAA

KBRG 300115Z AUTO 20004KT 10SM CLR 30/04 A3019 RMK AO2 T02970035


Station Type Date Time Source
KBRG Decoded METAR 2022/06/30 01:15 UTC NOAA

Station name not available
Jun 29, 2022 - 09:15 PM EDT / 2022.06.30 0115 UTC
Wind: from the SSW (200 degrees) at 5 MPH (4 KT):0
Visibility: 10 mile(s):0
Sky conditions: clear
Temperature: 85.5 F (29.7 C)
Dew Point: 38.3 F (3.5 C)
Relative Humidity: 18%
Pressure (altimeter): 30.19 in. Hg (1022 hPa)
ob: KBRG 300115Z AUTO 20004KT 10SM CLR 30/04 A3019 RMK AO2 T02970035
cycle: 1

Station Type Date Time Source
KBRG TAF 2012/07/03 12:12 UTC NOAA

TAF SKBRG 031000Z 031212 VRB02KT 9999 FEW017 SCT080
TEMPO 0312/0317 11005KT VCTS - DZRAFEW015CB BKN070
TEMPO 0318/0323 TSRA FEW017CB BKN070
TEMPO 0400/0402 VCTS FEW020CB
TEMPO 0402/0406 -DZ SCT015CB
TEMPO 0408/0412 00000KT 5000 BCFG FEW005 TX23/0319Z TN10/0411Z

Example: see airport list